Time;durP1;ratioP1;P1;durP2;ratioP2;P2;SDS_P1;SDS_P2;PMS_P1;PMS_P2;Temp;Humidity;BMP_temperature;BMP_pressure;BME280_temperature;BME280_humidity;BME280_pressure;Samples;Min_cycle;Max_cycle;Signal;HPM_P1;HPM_P2
2023/07/08 00:00:23;;;;;;;8.07;6.97;;;;;;;25.15;66.89;98167.41;5071689;28;20185;-57
2023/07/08 00:02:48;;;;;;;7.47;6.35;;;;;;;24.95;66.25;98152.50;5011767;28;20719;-57
2023/07/08 00:05:16;;;;;;;7.07;6.38;;;;;;;24.90;67.17;98152.28;5011602;28;20191;-56
2023/07/08 00:07:42;;;;;;;7.47;6.68;;;;;;;25.01;66.25;98149.84;5011748;28;20190;-57
2023/07/08 00:10:19;;;;;;;7.05;6.38;;;;;;;24.96;66.72;98144.34;5011673;28;20229;-57
2023/07/08 00:12:47;;;;;;;8.25;6.97;;;;;;;24.85;66.08;98115.81;4992016;28;20203;-57
2023/07/08 00:15:13;;;;;;;6.45;5.75;;;;;;;25.05;64.35;98134.38;4991875;28;20250;-57
2023/07/08 00:17:39;;;;;;;6.85;6.15;;;;;;;25.01;64.59;98112.78;4991927;28;20277;-58
2023/07/08 00:20:10;;;;;;;6.30;5.78;;;;;;;25.06;64.75;98136.81;4991890;28;20697;-57
2023/07/08 00:22:36;;;;;;;6.68;5.95;;;;;;;24.93;63.58;98128.88;4972438;28;20184;-58
2023/07/08 00:25:01;;;;;;;7.68;5.35;;;;;;;24.96;63.04;98130.31;4972297;28;20437;-57
2023/07/08 00:27:26;;;;;;;8.90;5.82;;;;;;;24.90;62.51;98120.53;4972359;28;20278;-57
2023/07/08 00:29:52;;;;;;;6.85;5.38;;;;;;;25.01;62.83;98139.25;4977514;28;20187;-57
2023/07/08 00:32:17;;;;;;;9.23;5.70;;;;;;;25.01;62.57;98138.47;4991652;28;20198;-57
2023/07/08 00:34:43;;;;;;;7.63;6.03;;;;;;;24.99;62.77;98140.47;5026569;28;20599;-57
2023/07/08 00:37:12;;;;;;;9.95;6.03;;;;;;;24.93;63.37;98136.81;4974463;28;20203;-57
2023/07/08 00:39:38;;;;;;;8.73;5.90;;;;;;;24.89;63.43;98140.03;4972198;28;20750;-57
2023/07/08 00:42:24;;;;;;;7.45;5.78;;;;;;;24.97;62.65;98156.56;4972208;28;20184;-57
2023/07/08 00:44:50;;;;;;;6.75;6.10;;;;;;;24.94;62.73;98159.63;4952648;29;20672;-57
2023/07/08 00:47:16;;;;;;;6.75;6.05;;;;;;;25.03;62.56;98163.69;4952615;29;20275;-57
2023/07/08 00:49:49;;;;;;;6.65;5.95;;;;;;;24.92;63.29;98155.53;4952618;29;20192;-57
2023/07/08 00:52:26;;;;;;;7.10;6.40;;;;;;;24.90;63.54;98152.28;4952820;29;20268;-57
2023/07/08 00:54:57;;;;;;;7.30;5.97;;;;;;;24.88;63.84;98157.78;4991477;28;20198;-57
2023/07/08 00:57:29;;;;;;;8.55;6.60;;;;;;;24.82;63.53;98142.69;4952184;28;20197;-57
2023/07/08 00:59:54;;;;;;;7.35;5.93;;;;;;;24.96;63.86;98168.16;4914400;29;20197;-57
2023/07/08 01:02:23;;;;;;;7.25;6.28;;;;;;;24.82;64.52;98176.28;4914508;29;20196;-57
2023/07/08 01:05:10;;;;;;;6.65;5.95;;;;;;;24.82;64.07;98166.53;4933145;29;20589;-57
2023/07/08 01:07:38;;;;;;;8.57;6.80;;;;;;;24.68;64.30;98153.47;4944001;28;20262;-57
2023/07/08 01:10:12;;;;;;;6.63;6.03;;;;;;;24.85;64.34;98176.69;4971529;28;20226;-57
2023/07/08 01:12:45;;;;;;;7.68;6.40;;;;;;;24.72;64.48;98171.38;4971651;28;20212;-57
2023/07/08 01:15:11;;;;;;;7.05;6.20;;;;;;;24.80;65.16;98187.09;4985600;28;20591;-56
2023/07/08 01:17:37;;;;;;;6.95;6.20;;;;;;;24.77;64.79;98187.47;5030297;28;20186;-56
2023/07/08 01:20:05;;;;;;;8.20;6.38;;;;;;;24.73;64.73;98182.78;5030217;28;20193;-57
2023/07/08 01:22:32;;;;;;;7.43;6.45;;;;;;;24.78;65.12;98188.31;5030157;28;20182;-57
2023/07/08 01:25:03;;;;;;;6.93;6.22;;;;;;;24.72;65.31;98197.84;5030088;28;20217;-57
2023/07/08 01:27:31;;;;;;;6.80;5.75;;;;;;;24.62;65.68;98186.81;5030206;28;20174;-57
2023/07/08 01:29:58;;;;;;;9.13;6.47;;;;;;;24.49;66.02;98162.91;5034449;28;20271;-57
2023/07/08 01:32:24;;;;;;;6.55;6.03;;;;;;;24.58;66.40;98185.59;5070021;28;20173;-57
2023/07/08 01:35:01;;;;;;;7.15;5.95;;;;;;;24.58;66.28;98180.28;5069887;28;20370;-57
2023/07/08 01:37:37;;;;;;;7.32;6.00;;;;;;;24.61;65.72;98179.88;5069920;28;20609;-58
2023/07/08 01:40:21;;;;;;;8.18;6.32;;;;;;;24.59;66.00;98166.06;5069862;28;20269;-58
2023/07/08 01:42:46;;;;;;;7.88;5.95;;;;;;;24.58;65.71;98181.31;5085839;28;20200;-57
2023/07/08 01:45:14;;;;;;;7.28;6.07;;;;;;;24.35;66.17;98163.91;5092434;28;20172;-58
2023/07/08 01:47:42;;;;;;;5.75;5.10;;;;;;;24.46;65.62;98186.31;5092029;28;20191;-57
2023/07/08 01:50:10;;;;;;;8.25;5.80;;;;;;;24.37;65.14;98151.28;5049589;28;20212;-57
2023/07/08 01:52:36;;;;;;;6.05;5.55;;;;;;;24.42;65.68;98180.59;5049719;28;20190;-56
2023/07/08 01:55:02;;;;;;;9.45;6.00;;;;;;;24.45;65.38;98188.13;5049570;28;20189;-57
2023/07/08 01:57:28;;;;;;;6.90;6.18;;;;;;;24.29;65.27;98175.25;5049653;28;20648;-58
2023/07/08 01:59:53;;;;;;;7.47;6.05;;;;;;;24.47;65.63;98193.22;5049487;28;20193;-57
2023/07/08 02:02:18;;;;;;;7.00;6.30;;;;;;;24.36;66.20;98185.84;5049608;28;20250;-57
2023/07/08 02:04:44;;;;;;;8.65;5.90;;;;;;;24.52;65.47;98194.28;5049413;28;20284;-57
2023/07/08 02:07:09;;;;;;;6.65;6.05;;;;;;;24.53;65.45;98201.22;5049628;28;20176;-57
2023/07/08 02:09:35;;;;;;;6.95;6.35;;;;;;;24.36;65.68;98178.75;5048830;28;20208;-57
2023/07/08 02:12:00;;;;;;;7.38;6.47;;;;;;;24.44;65.84;98194.44;5049483;28;20651;-57
2023/07/08 02:14:26;;;;;;;9.80;6.20;;;;;;;24.25;65.78;98174.00;5049501;28;20283;-57
2023/07/08 02:16:52;;;;;;;7.63;6.35;;;;;;;24.40;66.04;98200.34;5049300;28;20189;-58
2023/07/08 02:19:19;;;;;;;6.80;6.05;;;;;;;24.45;65.73;98205.84;5049154;28;20227;-56
2023/07/08 02:21:44;;;;;;;7.32;6.53;;;;;;;24.31;65.98;98193.59;5059705;28;20614;-57
2023/07/08 02:24:10;;;;;;;8.13;6.68;;;;;;;24.35;66.36;98208.84;5069336;28;20196;-57
2023/07/08 02:26:35;;;;;;;11.43;6.93;;;;;;;24.21;66.35;98186.00;5069321;28;20185;-57
2023/07/08 02:29:01;;;;;;;10.38;7.05;;;;;;;24.23;65.97;98180.50;5069056;28;20192;-57
2023/07/08 02:31:27;;;;;;;8.27;6.32;;;;;;;24.34;66.06;98198.47;5069222;28;20224;-57
2023/07/08 02:33:53;;;;;;;7.45;6.15;;;;;;;24.27;66.14;98193.13;5029454;28;20259;-55
2023/07/08 02:36:19;;;;;;;7.65;6.38;;;;;;;24.20;66.51;98191.50;5029523;28;20214;-57
2023/07/08 02:38:44;;;;;;;7.25;6.57;;;;;;;24.26;67.06;98207.38;4990023;28;20221;-57
2023/07/08 02:41:11;;;;;;;7.88;6.57;;;;;;;24.23;66.30;98206.97;4970623;28;20187;-57
2023/07/08 02:43:37;;;;;;;8.35;7.03;;;;;;;24.28;66.38;98207.19;4970723;28;20677;-57
2023/07/08 02:46:02;;;;;;;8.18;6.88;;;;;;;24.17;65.82;98180.50;4932157;29;20189;-57
2023/07/08 02:48:28;;;;;;;7.82;7.03;;;;;;;24.21;65.52;98196.56;4894037;29;20349;-57
2023/07/08 02:51:01;;;;;;;8.27;7.28;;;;;;;24.23;65.65;98197.22;4856988;29;20266;-57
2023/07/08 02:53:27;;;;;;;9.00;7.22;;;;;;;24.32;65.21;98227.75;4872035;29;20621;-57
2023/07/08 02:55:52;;;;;;;7.70;7.00;;;;;;;24.23;65.33;98207.78;4875769;29;20223;-57
2023/07/08 02:58:18;;;;;;;10.02;7.05;;;;;;;24.29;65.42;98216.75;4875671;29;20643;-57
2023/07/08 03:00:43;;;;;;;8.90;7.28;;;;;;;24.28;65.09;98226.53;4861068;29;20247;-57
2023/07/08 03:03:08;;;;;;;10.15;7.78;;;;;;;24.11;65.34;98195.31;4857235;29;20202;-57
2023/07/08 03:05:34;;;;;;;8.25;7.45;;;;;;;24.18;65.00;98219.94;4886425;29;20311;-57
2023/07/08 03:07:59;;;;;;;9.45;7.57;;;;;;;24.20;64.88;98226.66;4894314;29;20202;-57
2023/07/08 03:10:26;;;;;;;8.15;7.30;;;;;;;24.20;64.95;98229.31;4923792;29;20236;-57
2023/07/08 03:12:51;;;;;;;8.73;7.90;;;;;;;24.12;64.54;98238.44;4947026;29;20185;-57
2023/07/08 03:15:16;;;;;;;8.88;7.28;;;;;;;24.17;64.67;98231.53;4951260;29;20191;-57
2023/07/08 03:17:43;;;;;;;9.25;6.85;;;;;;;24.13;64.14;98236.41;4996234;28;20218;-57
2023/07/08 03:20:10;;;;;;;7.68;6.93;;;;;;;24.13;64.25;98238.22;5029945;28;20281;-57
2023/07/08 03:22:37;;;;;;;10.90;6.68;;;;;;;24.11;64.11;98227.03;5080813;28;20704;-57
2023/07/08 03:25:02;;;;;;;7.90;7.10;;;;;;;24.08;64.55;98241.44;5092968;28;20222;-57
2023/07/08 03:27:28;;;;;;;7.60;6.78;;;;;;;23.96;64.06;98199.88;5092932;28;20184;-56
2023/07/08 03:29:54;;;;;;;9.25;7.68;;;;;;;24.14;63.87;98235.38;5092722;28;20693;-57
2023/07/08 03:32:19;;;;;;;7.75;6.95;;;;;;;24.12;63.74;98244.53;5092840;28;20560;-57
2023/07/08 03:34:45;;;;;;;8.40;7.60;;;;;;;23.86;64.31;98205.47;5092762;28;20604;-57
2023/07/08 03:37:10;;;;;;;8.20;6.70;;;;;;;24.13;63.69;98232.13;5092740;28;20288;-57
2023/07/08 03:39:36;;;;;;;10.85;7.20;;;;;;;24.17;63.74;98228.91;5092634;28;20188;-58
2023/07/08 03:42:03;;;;;;;8.55;6.72;;;;;;;24.19;63.95;98250.66;5092902;28;20685;-58
2023/07/08 03:44:29;;;;;;;11.07;6.80;;;;;;;24.23;63.48;98239.53;5092538;28;20380;-57
2023/07/08 03:46:54;;;;;;;6.90;6.20;;;;;;;24.20;63.27;98241.75;5092547;28;20227;-57
2023/07/08 03:49:23;;;;;;;8.48;5.90;;;;;;;24.15;63.52;98244.16;5092439;28;20270;-58
2023/07/08 03:51:51;;;;;;;7.60;6.90;;;;;;;24.21;63.38;98246.81;5093989;28;20302;-58
2023/07/08 03:54:18;;;;;;;8.35;7.47;;;;;;;24.07;63.50;98219.69;5094823;28;20179;-57
2023/07/08 03:56:43;;;;;;;10.50;7.43;;;;;;;24.25;63.83;98248.06;5072011;28;20184;-57
2023/07/08 03:59:09;;;;;;;9.13;7.15;;;;;;;24.21;63.43;98236.22;5072062;28;20681;-57
2023/07/08 04:01:34;;;;;;;7.82;7.07;;;;;;;24.15;64.47;98247.59;5072112;28;20192;-57
2023/07/08 04:04:00;;;;;;;8.30;7.35;;;;;;;24.23;63.79;98270.44;5092079;28;20194;-57
2023/07/08 04:06:28;;;;;;;7.60;6.80;;;;;;;24.07;63.87;98238.19;5092185;28;20191;-57
2023/07/08 04:08:54;;;;;;;7.63;6.93;;;;;;;24.20;64.00;98263.69;5071717;28;20724;-57
2023/07/08 04:11:22;;;;;;;10.07;7.05;;;;;;;24.27;63.63;98267.19;5071782;28;20221;-57
2023/07/08 04:13:49;;;;;;;8.27;7.18;;;;;;;24.19;63.72;98248.84;5071774;28;20184;-57
2023/07/08 04:16:24;;;;;;;11.48;7.63;;;;;;;24.31;64.20;98273.72;5091264;28;20192;-57
2023/07/08 04:18:53;;;;;;;8.30;7.50;;;;;;;24.15;64.02;98242.28;5092119;28;20282;-58
2023/07/08 04:21:19;;;;;;;10.82;8.20;;;;;;;24.23;64.09;98254.56;5091749;28;20198;-57
2023/07/08 04:23:45;;;;;;;9.18;7.57;;;;;;;24.34;64.61;98262.78;5091757;28;20188;-57
2023/07/08 04:26:10;;;;;;;9.13;7.88;;;;;;;24.40;63.74;98266.47;5091746;28;20790;-57
2023/07/08 04:28:36;;;;;;;11.88;8.45;;;;;;;24.33;64.13;98261.13;5091685;28;20733;-57
2023/07/08 04:31:01;;;;;;;8.85;7.95;;;;;;;24.09;64.59;98235.13;5091601;28;20216;-57
2023/07/08 04:33:27;;;;;;;9.15;8.35;;;;;;;24.31;64.57;98257.88;5091218;28;20182;-57
2023/07/08 04:35:54;;;;;;;8.73;7.88;;;;;;;24.30;64.45;98250.94;5073936;28;20188;-57
2023/07/08 04:38:22;;;;;;;9.45;8.45;;;;;;;24.32;64.91;98258.69;5071361;28;20180;-57
2023/07/08 04:40:49;;;;;;;11.00;8.25;;;;;;;24.40;64.47;98266.47;5088940;28;20192;-57
2023/07/08 04:43:15;;;;;;;9.40;8.40;;;;;;;24.27;64.20;98246.03;5091391;28;20180;-57
2023/07/08 04:45:43;;;;;;;12.88;8.95;;;;;;;24.26;64.50;98243.59;5091410;28;20602;-57
2023/07/08 04:48:14;;;;;;;10.15;8.35;;;;;;;24.45;64.72;98270.13;5093545;28;20721;-56
2023/07/08 04:50:44;;;;;;;10.05;9.00;;;;;;;24.40;64.42;98232.91;5093685;28;20199;-57
2023/07/08 04:53:10;;;;;;;11.07;9.77;;;;;;;24.56;64.81;98234.41;5050914;28;20618;-57
2023/07/08 04:55:39;;;;;;;9.73;8.73;;;;;;;24.78;64.18;98254.47;5051028;28;20216;-57
2023/07/08 04:58:05;;;;;;;10.00;8.38;;;;;;;24.78;63.79;98255.28;5010930;28;20194;-57
2023/07/08 05:00:31;;;;;;;9.50;8.38;;;;;;;24.90;63.21;98264.28;5010906;28;20249;-57
2023/07/08 05:02:56;;;;;;;9.90;8.80;;;;;;;24.97;63.37;98254.50;5010868;28;20262;-57
2023/07/08 05:05:22;;;;;;;9.07;7.68;;;;;;;25.10;62.98;98254.56;5011122;28;20198;-57
2023/07/08 05:07:49;;;;;;;7.95;7.07;;;;;;;25.06;61.98;98241.91;5010997;28;20183;-57
2023/07/08 05:10:15;;;;;;;8.23;7.43;;;;;;;24.95;61.98;98232.72;5010929;28;20213;-57
2023/07/08 05:12:42;;;;;;;8.35;7.57;;;;;;;24.91;62.55;98217.44;5011274;28;20186;-57
2023/07/08 05:15:07;;;;;;;7.93;7.15;;;;;;;24.97;62.00;98225.38;4991229;28;20654;-57
2023/07/08 05:17:33;;;;;;;7.50;6.80;;;;;;;25.02;62.08;98225.63;4991200;28;20187;-57
2023/07/08 05:20:00;;;;;;;7.63;6.93;;;;;;;24.93;62.61;98226.81;4991212;28;20563;-57
2023/07/08 05:22:26;;;;;;;7.47;6.72;;;;;;;24.97;61.30;98219.28;4991153;28;20277;-57
2023/07/08 05:24:55;;;;;;;8.07;7.38;;;;;;;25.07;61.46;98217.09;5022428;28;20196;-57
2023/07/08 05:27:24;;;;;;;7.53;6.82;;;;;;;25.23;61.37;98236.06;5030387;28;20185;-56
2023/07/08 05:29:50;;;;;;;6.70;6.07;;;;;;;24.91;60.69;98194.41;5010397;28;20240;-57
2023/07/08 05:32:16;;;;;;;6.78;6.18;;;;;;;25.02;60.92;98209.72;5010633;28;20191;-57
2023/07/08 05:34:42;;;;;;;9.80;6.72;;;;;;;25.15;61.22;98222.19;5023491;28;20190;-57
2023/07/08 05:37:08;;;;;;;6.15;5.65;;;;;;;25.23;60.76;98220.16;5013875;28;20189;-57
2023/07/08 05:39:34;;;;;;;5.90;5.35;;;;;;;25.44;60.29;98233.28;5030473;28;20186;-57
2023/07/08 05:42:00;;;;;;;6.60;6.00;;;;;;;25.44;60.05;98208.59;5030161;28;20742;-57
2023/07/08 05:44:25;;;;;;;6.68;6.03;;;;;;;25.61;60.32;98231.81;5029337;28;20224;-57
2023/07/08 05:46:50;;;;;;;6.25;5.65;;;;;;;25.68;59.74;98237.13;5026105;28;20229;-57
2023/07/08 05:49:16;;;;;;;7.28;6.05;;;;;;;25.66;58.80;98239.19;5030039;28;20312;-57
2023/07/08 05:51:44;;;;;;;6.47;5.88;;;;;;;25.60;58.80;98216.16;5029721;28;20252;-57
2023/07/08 05:54:10;;;;;;;7.97;5.78;;;;;;;25.54;58.87;98214.31;5030032;28;20277;-57
2023/07/08 05:56:35;;;;;;;6.72;6.13;;;;;;;25.73;59.31;98235.50;5030020;28;20261;-57
2023/07/08 05:59:01;;;;;;;6.32;5.72;;;;;;;25.79;58.24;98240.00;5029878;28;20193;-57
2023/07/08 06:01:26;;;;;;;6.68;6.00;;;;;;;25.82;58.59;98236.09;5045035;28;20185;-57
2023/07/08 06:03:52;;;;;;;5.90;5.40;;;;;;;25.73;58.32;98232.03;5049616;28;20227;-57
2023/07/08 06:06:17;;;;;;;6.45;5.85;;;;;;;25.71;58.40;98224.28;5049727;28;20236;-57
2023/07/08 06:08:43;;;;;;;5.65;5.15;;;;;;;25.78;59.22;98232.25;5049698;28;20250;-57
2023/07/08 06:11:08;;;;;;;5.97;5.35;;;;;;;25.82;58.49;98223.69;5029631;28;20213;-57
2023/07/08 06:13:34;;;;;;;5.63;5.13;;;;;;;25.86;58.86;98229.38;5029697;28;20194;-57
2023/07/08 06:15:59;;;;;;;5.75;5.07;;;;;;;25.80;57.13;98207.16;5029718;28;20594;-58
2023/07/08 06:18:25;;;;;;;6.38;5.47;;;;;;;25.92;56.80;98226.75;5029724;28;20205;-57
2023/07/08 06:20:52;;;;;;;6.28;5.43;;;;;;;25.81;57.75;98197.38;5029789;28;20194;-58
2023/07/08 06:23:17;;;;;;;5.95;5.35;;;;;;;26.03;58.19;98227.97;5031396;28;20258;-56
2023/07/08 06:25:43;;;;;;;6.53;5.97;;;;;;;26.10;57.94;98242.03;5049556;28;20366;-56
2023/07/08 06:28:08;;;;;;;9.18;7.20;;;;;;;26.18;57.51;98233.88;5049818;28;20217;-56
2023/07/08 06:30:33;;;;;;;5.45;4.95;;;;;;;26.07;57.31;98230.00;5049415;28;20220;-56
2023/07/08 06:32:59;;;;;;;5.90;5.38;;;;;;;26.03;56.57;98218.19;5049552;28;20413;-56
2023/07/08 06:35:24;;;;;;;6.72;4.82;;;;;;;26.05;57.08;98218.78;5049552;28;20717;-56
2023/07/08 06:37:50;;;;;;;5.50;5.00;;;;;;;26.19;56.94;98225.69;5049449;28;20834;-56
2023/07/08 06:40:17;;;;;;;5.10;4.47;;;;;;;26.05;56.14;98212.66;5049455;28;20173;-56
2023/07/08 06:42:42;;;;;;;6.25;4.10;;;;;;;26.26;56.47;98238.94;5080817;28;20538;-56
2023/07/08 06:45:08;;;;;;;5.10;4.28;;;;;;;26.10;56.21;98202.25;5092354;28;20175;-56
2023/07/08 06:47:34;;;;;;;7.18;4.53;;;;;;;26.22;56.10;98229.75;5092132;28;20191;-56
2023/07/08 06:49:59;;;;;;;5.20;4.60;;;;;;;25.98;57.05;98193.28;5091564;28;20713;-56
2023/07/08 06:52:24;;;;;;;5.57;5.03;;;;;;;26.17;57.25;98230.38;5091918;28;20176;-56
2023/07/08 06:54:50;;;;;;;5.50;4.30;;;;;;;26.25;56.83;98230.16;5092641;28;20180;-56
2023/07/08 06:57:15;;;;;;;4.95;4.40;;;;;;;26.26;56.76;98231.81;5095898;28;20176;-56
2023/07/08 06:59:40;;;;;;;4.88;4.50;;;;;;;26.28;56.37;98235.06;5053048;28;20329;-56
2023/07/08 07:02:06;;;;;;;8.52;5.00;;;;;;;26.21;56.51;98215.69;5053171;28;20676;-56
2023/07/08 07:04:32;;;;;;;6.90;5.60;;;;;;;26.08;57.11;98222.88;5033068;28;20186;-57
2023/07/08 07:06:57;;;;;;;5.55;5.05;;;;;;;26.13;56.22;98247.72;5033090;28;20197;-56
2023/07/08 07:09:23;;;;;;;10.23;5.05;;;;;;;25.98;56.47;98231.25;5033063;28;20185;-56
2023/07/08 07:11:48;;;;;;;6.97;5.10;;;;;;;26.07;57.73;98242.47;5033002;28;20610;-56
2023/07/08 07:14:14;;;;;;;5.45;4.90;;;;;;;26.21;56.94;98247.53;5013012;28;20197;-56
2023/07/08 07:16:39;;;;;;;4.63;4.22;;;;;;;26.23;56.92;98253.44;4993445;28;20752;-56
2023/07/08 07:19:04;;;;;;;6.00;4.68;;;;;;;26.32;56.88;98262.81;4993439;28;20195;-56
2023/07/08 07:21:30;;;;;;;6.00;4.70;;;;;;;26.32;56.46;98262.81;4993445;28;20604;-57
2023/07/08 07:23:55;;;;;;;5.63;4.97;;;;;;;26.32;55.96;98249.53;4993458;28;20190;-56
2023/07/08 07:26:21;;;;;;;6.78;5.32;;;;;;;26.25;56.59;98255.88;4993355;28;20542;-57
2023/07/08 07:28:46;;;;;;;8.35;4.25;;;;;;;26.26;56.72;98242.41;4973764;28;20184;-56
2023/07/08 07:31:11;;;;;;;6.65;4.97;;;;;;;26.28;56.96;98239.53;5006947;28;20592;-57
2023/07/08 07:33:37;;;;;;;6.05;4.20;;;;;;;26.53;56.97;98275.81;5012865;28;20273;-57
2023/07/08 07:36:03;;;;;;;5.80;4.90;;;;;;;26.56;56.56;98267.47;5041299;28;20682;-57
2023/07/08 07:38:29;;;;;;;5.95;4.53;;;;;;;26.52;56.08;98279.50;5052497;28;20193;-58
2023/07/08 07:40:56;;;;;;;4.20;3.90;;;;;;;26.41;55.97;98264.22;5052462;28;20609;-57
2023/07/08 07:43:22;;;;;;;4.85;4.45;;;;;;;26.47;56.38;98262.56;5052308;28;20267;-57
2023/07/08 07:45:53;;;;;;;4.70;4.30;;;;;;;26.54;56.45;98276.66;5037685;28;20205;-58
2023/07/08 07:48:20;;;;;;;5.93;4.40;;;;;;;26.43;56.52;98264.84;5032211;28;20206;-57
2023/07/08 07:50:47;;;;;;;7.55;4.57;;;;;;;26.46;56.95;98275.00;5032281;28;20240;-57
2023/07/08 07:53:12;;;;;;;5.47;4.85;;;;;;;26.41;56.21;98250.94;5032264;28;20614;-57
2023/07/08 07:55:38;;;;;;;4.70;4.30;;;;;;;26.57;55.66;98276.22;5032230;28;20273;-57
2023/07/08 07:58:04;;;;;;;5.85;4.50;;;;;;;26.46;56.44;98253.78;5032267;28;20281;-57
2023/07/08 08:00:30;;;;;;;6.28;4.40;;;;;;;26.69;57.52;98288.66;5015995;28;20194;-57
2023/07/08 08:02:56;;;;;;;4.72;3.67;;;;;;;26.77;55.87;98288.41;5061010;28;20562;-57
2023/07/08 08:05:21;;;;;;;4.53;4.05;;;;;;;26.78;55.47;98289.25;5072002;28;20665;-57
2023/07/08 08:07:47;;;;;;;4.90;4.50;;;;;;;26.74;56.84;98288.03;5070899;28;20766;-57
2023/07/08 08:10:13;;;;;;;4.68;4.00;;;;;;;26.68;56.40;98271.09;5071855;28;20252;-57
2023/07/08 08:12:39;;;;;;;4.90;4.40;;;;;;;26.76;55.90;98289.44;5071888;28;20243;-58
2023/07/08 08:15:05;;;;;;;4.68;4.10;;;;;;;26.82;55.92;98271.88;5071786;28;20283;-56
2023/07/08 08:17:30;;;;;;;4.53;4.10;;;;;;;27.08;54.22;98288.50;5071959;28;20188;-56
2023/07/08 08:19:55;;;;;;;4.63;4.20;;;;;;;27.02;53.58;98291.19;5071712;28;20188;-56
2023/07/08 08:22:21;;;;;;;4.22;3.92;;;;;;;27.20;52.79;98286.84;5071637;28;20188;-56
2023/07/08 08:24:46;;;;;;;4.18;3.85;;;;;;;27.17;54.24;98286.44;5071639;28;20666;-56
2023/07/08 08:27:12;;;;;;;6.47;4.80;;;;;;;27.27;55.16;98289.44;5071828;28;20188;-57
2023/07/08 08:29:37;;;;;;;5.15;4.32;;;;;;;27.31;54.72;98283.50;5071582;28;20189;-57
2023/07/08 08:32:03;;;;;;;4.78;4.35;;;;;;;27.31;55.54;98264.91;5087789;28;20216;-57
2023/07/08 08:34:28;;;;;;;8.23;5.25;;;;;;;27.47;54.88;98275.00;5093769;28;20228;-57
2023/07/08 08:36:55;;;;;;;8.88;4.50;;;;;;;27.52;54.06;98277.84;5093946;28;20597;-57
2023/07/08 08:39:21;;;;;;;4.68;4.38;;;;;;;27.66;54.29;98286.53;5093926;28;20225;-57
2023/07/08 08:41:46;;;;;;;5.63;4.45;;;;;;;27.63;52.92;98274.47;5093911;28;20588;-57
2023/07/08 08:44:21;;;;;;;5.90;4.40;;;;;;;27.73;53.60;98280.16;5093828;28;20175;-57
2023/07/08 08:47:16;;;;;;;4.30;3.90;;;;;;;27.82;53.63;98284.19;5094089;28;20152;-57
2023/07/08 08:49:48;;;;;;;4.10;3.70;;;;;;;28.00;52.46;98300.22;5085370;28;20203;-57
2023/07/08 08:52:14;;;;;;;3.88;3.50;;;;;;;28.15;50.53;98306.00;5093648;28;20184;-57
2023/07/08 08:54:40;;;;;;;3.85;3.45;;;;;;;28.03;50.33;98283.81;5093681;28;20187;-57
2023/07/08 08:57:40;;;;;;;5.07;3.95;;;;;;;28.21;50.71;98321.09;5093608;28;20193;-57
2023/07/08 09:00:09;;;;;;;4.28;3.97;;;;;;;28.09;51.33;98290.91;5051016;28;20289;-57
2023/07/08 09:02:40;;;;;;;4.22;3.92;;;;;;;28.07;50.67;98297.50;5050853;28;20177;-57
2023/07/08 09:05:11;;;;;;;4.63;3.75;;;;;;;28.05;50.83;98288.91;5050923;28;20204;-57
2023/07/08 09:08:01;;;;;;;3.75;3.50;;;;;;;28.24;50.43;98307.38;5050835;28;20177;-57
2023/07/08 09:10:29;;;;;;;3.47;3.17;;;;;;;28.31;50.18;98294.00;5050751;28;20213;-57
2023/07/08 09:12:57;;;;;;;4.65;3.22;;;;;;;28.33;50.10;98287.41;5050666;28;20261;-57
2023/07/08 09:15:25;;;;;;;4.15;3.75;;;;;;;28.41;50.70;98295.16;5030659;28;20193;-57
2023/07/08 09:17:56;;;;;;;3.35;3.15;;;;;;;28.43;50.46;98287.75;5030434;28;20186;-57
2023/07/08 09:20:29;;;;;;;6.20;3.38;;;;;;;28.50;48.52;98283.16;5030532;28;20201;-57
2023/07/08 09:23:08;;;;;;;3.80;3.33;;;;;;;28.53;48.86;98298.72;5030550;28;20177;-57
2023/07/08 09:25:53;;;;;;;4.53;3.30;;;;;;;28.52;49.73;98256.34;4991098;28;20250;-57
2023/07/08 09:28:18;;;;;;;3.30;2.85;;;;;;;28.54;48.65;98252.41;4991222;28;20189;-57
2023/07/08 09:30:51;;;;;;;3.60;3.40;;;;;;;28.76;47.94;98285.56;4990975;28;20612;-57
2023/07/08 09:33:16;;;;;;;3.50;3.22;;;;;;;28.78;48.43;98272.81;4991065;28;20179;-57
2023/07/08 09:35:46;;;;;;;4.55;3.30;;;;;;;28.84;49.40;98285.25;4990998;28;20274;-57
2023/07/08 09:38:17;;;;;;;3.35;3.05;;;;;;;28.80;48.22;98268.06;4952184;29;20223;-57
2023/07/08 09:40:53;;;;;;;3.53;3.22;;;;;;;28.59;48.60;98270.38;4952198;29;20566;-57
2023/07/08 09:43:26;;;;;;;5.47;3.08;;;;;;;28.58;49.16;98255.44;4952343;29;20675;-57
2023/07/08 09:45:55;;;;;;;4.15;3.85;;;;;;;28.45;48.92;98259.06;4963834;28;20202;-57
2023/07/08 09:48:24;;;;;;;3.95;3.40;;;;;;;28.43;48.47;98245.16;4990608;28;20266;-57
2023/07/08 09:50:53;;;;;;;3.38;3.00;;;;;;;28.49;48.59;98248.78;4990811;28;20227;-57
2023/07/08 09:53:19;;;;;;;3.53;3.22;;;;;;;28.58;48.45;98261.56;4990744;28;20178;-57
2023/07/08 09:55:45;;;;;;;3.53;3.22;;;;;;;28.40;48.21;98252.78;4997259;28;20729;-57
2023/07/08 09:58:25;;;;;;;5.47;3.75;;;;;;;28.36;47.73;98281.66;5029935;28;20293;-57
2023/07/08 10:00:55;;;;;;;4.55;3.30;;;;;;;28.34;49.00;98267.75;5030124;28;20618;-57
2023/07/08 10:03:31;;;;;;;3.33;3.03;;;;;;;28.39;47.54;98267.13;5029951;28;20688;-57
2023/07/08 10:06:00;;;;;;;7.05;3.25;;;;;;;28.54;49.11;98263.06;5029954;28;20224;-57
2023/07/08 10:08:34;;;;;;;3.50;3.20;;;;;;;28.51;47.76;98247.50;5037393;28;20646;-57
2023/07/08 10:11:13;;;;;;;6.18;3.40;;;;;;;28.69;47.95;98260.03;5069749;28;20215;-57
2023/07/08 10:13:45;;;;;;;3.95;3.28;;;;;;;28.90;48.99;98265.69;5069938;28;20234;-57
2023/07/08 10:16:13;;;;;;;10.68;3.70;;;;;;;29.05;46.92;98279.47;5069733;28;20188;-57
2023/07/08 10:18:39;;;;;;;3.60;3.30;;;;;;;29.16;46.91;98273.38;5069741;28;20179;-57
2023/07/08 10:21:13;;;;;;;5.00;3.30;;;;;;;29.25;46.84;98258.69;5069593;28;20608;-57
2023/07/08 10:23:57;;;;;;;3.97;3.03;;;;;;;29.44;46.31;98265.59;5049584;28;20701;-57
2023/07/08 10:26:28;;;;;;;3.90;3.50;;;;;;;29.49;45.89;98257.72;5049467;28;20655;-57
2023/07/08 10:29:18;;;;;;;3.65;3.08;;;;;;;29.47;45.72;98285.66;5049449;28;20192;-57
2023/07/08 10:32:02;;;;;;;3.30;3.10;;;;;;;29.18;45.27;98244.66;5053202;28;20533;-57
2023/07/08 10:34:54;;;;;;;4.70;3.40;;;;;;;29.42;44.50;98266.84;5054064;28;20248;-57
2023/07/08 10:37:37;;;;;;;5.50;2.75;;;;;;;29.45;45.16;98267.22;5053748;28;20247;-57
2023/07/08 10:40:29;;;;;;;4.50;3.50;;;;;;;29.47;45.13;98259.81;5053493;28;20191;-57
2023/07/08 10:43:18;;;;;;;4.47;3.28;;;;;;;29.69;45.27;98268.94;5053507;28;20177;-58
2023/07/08 10:46:17;;;;;;;3.70;3.25;;;;;;;29.52;44.77;98225.28;5053543;28;20250;-57
2023/07/08 10:48:50;;;;;;;5.70;2.88;;;;;;;29.85;44.34;98246.91;5053320;28;20213;-59
2023/07/08 10:51:31;;;;;;;3.30;3.10;;;;;;;30.12;44.49;98247.28;5033250;28;20217;-60
2023/07/08 10:54:06;;;;;;;3.92;3.47;;;;;;;30.24;43.92;98240.09;5033426;28;20197;-57
2023/07/08 10:56:51;;;;;;;3.53;3.33;;;;;;;30.41;43.01;98238.31;5033312;28;20277;-57
2023/07/08 10:59:42;;;;;;;4.10;3.70;;;;;;;30.73;43.13;98251.06;5033383;28;20181;-58
2023/07/08 11:02:19;;;;;;;3.80;3.50;;;;;;;30.76;42.43;98220.38;5021976;28;20228;-57
2023/07/08 11:05:04;;;;;;;3.40;3.20;;;;;;;31.08;41.61;98237.59;5033275;28;20750;-57
2023/07/08 11:07:45;;;;;;;3.17;2.97;;;;;;;31.30;41.98;98222.53;5033248;28;20599;-57
2023/07/08 11:10:18;;;;;;;4.40;3.42;;;;;;;31.68;40.37;98244.84;4993664;28;20218;-57
2023/07/08 11:13:03;;;;;;;3.50;3.20;;;;;;;31.95;40.18;98250.41;4993706;28;20658;-57
2023/07/08 11:15:35;;;;;;;5.47;3.10;;;;;;;31.76;38.97;98249.03;4993657;28;20195;-57
2023/07/08 11:18:24;;;;;;;4.25;2.70;;;;;;;31.37;39.27;98221.28;4993699;28;20270;-57
2023/07/08 11:21:03;;;;;;;3.15;2.95;;;;;;;31.22;40.21;98239.75;4974098;28;20200;-58
2023/07/08 11:23:43;;;;;;;2.85;2.65;;;;;;;31.05;40.43;98238.88;5032991;28;20174;-57
2023/07/08 11:26:23;;;;;;;3.50;3.20;;;;;;;30.87;40.57;98236.41;5032933;28;20192;-57
2023/07/08 11:28:53;;;;;;;3.20;3.00;;;;;;;30.99;40.89;98239.84;5032927;28;20170;-58
2023/07/08 11:31:20;;;;;;;3.65;3.35;;;;;;;30.87;40.87;98225.69;5032598;28;20275;-57
2023/07/08 11:33:46;;;;;;;4.22;3.03;;;;;;;30.88;40.74;98246.03;5032641;28;20565;-57
2023/07/08 11:36:13;;;;;;;3.42;3.17;;;;;;;30.95;40.28;98244.03;5032594;28;20194;-57
2023/07/08 11:38:50;;;;;;;3.47;3.17;;;;;;;30.86;40.58;98229.44;5032645;28;20178;-57